sensor_id;sensor_type;location;lat;lon;timestamp;P1;durP1;ratioP1;P2;durP2;ratioP2
6185;SDS011;3126;52.738;8.316;2023-05-29T00:04:22;12.15;;;2.83;;
6185;SDS011;3126;52.738;8.316;2023-05-29T00:09:23;14.85;;;3.15;;
6185;SDS011;3126;52.738;8.316;2023-05-29T00:14:25;10.18;;;2.55;;
6185;SDS011;3126;52.738;8.316;2023-05-29T00:19:26;10.35;;;3.05;;
6185;SDS011;3126;52.738;8.316;2023-05-29T00:24:27;14.45;;;2.90;;
6185;SDS011;3126;52.738;8.316;2023-05-29T00:29:27;13.10;;;2.55;;
6185;SDS011;3126;52.738;8.316;2023-05-29T00:34:28;9.43;;;2.30;;
6185;SDS011;3126;52.738;8.316;2023-05-29T00:39:28;11.38;;;2.92;;
6185;SDS011;3126;52.738;8.316;2023-05-29T00:44:29;11.73;;;2.80;;
6185;SDS011;3126;52.738;8.316;2023-05-29T00:49:31;8.88;;;3.00;;
6185;SDS011;3126;52.738;8.316;2023-05-29T00:54:32;12.98;;;3.55;;
6185;SDS011;3126;52.738;8.316;2023-05-29T00:59:33;9.77;;;2.47;;
6185;SDS011;3126;52.738;8.316;2023-05-29T01:04:34;13.80;;;3.22;;
6185;SDS011;3126;52.738;8.316;2023-05-29T01:09:36;9.73;;;2.70;;
6185;SDS011;3126;52.738;8.316;2023-05-29T01:14:45;12.52;;;2.45;;
6185;SDS011;3126;52.738;8.316;2023-05-29T01:24:52;12.73;;;2.60;;
6185;SDS011;3126;52.738;8.316;2023-05-29T01:29:57;10.05;;;2.70;;
6185;SDS011;3126;52.738;8.316;2023-05-29T01:34:58;10.32;;;2.65;;
6185;SDS011;3126;52.738;8.316;2023-05-29T01:39:59;11.60;;;2.97;;
6185;SDS011;3126;52.738;8.316;2023-05-29T01:45:00;9.40;;;1.98;;
6185;SDS011;3126;52.738;8.316;2023-05-29T01:50:02;11.93;;;2.63;;
6185;SDS011;3126;52.738;8.316;2023-05-29T01:55:04;14.52;;;2.50;;
6185;SDS011;3126;52.738;8.316;2023-05-29T02:00:05;10.38;;;2.38;;
6185;SDS011;3126;52.738;8.316;2023-05-29T02:05:09;14.27;;;3.28;;
6185;SDS011;3126;52.738;8.316;2023-05-29T02:10:09;16.40;;;3.22;;
6185;SDS011;3126;52.738;8.316;2023-05-29T02:15:10;14.43;;;3.15;;
6185;SDS011;3126;52.738;8.316;2023-05-29T02:20:11;9.13;;;2.55;;
6185;SDS011;3126;52.738;8.316;2023-05-29T02:25:11;7.63;;;2.22;;
6185;SDS011;3126;52.738;8.316;2023-05-29T02:30:12;10.30;;;2.45;;
6185;SDS011;3126;52.738;8.316;2023-05-29T02:35:12;11.57;;;2.50;;
6185;SDS011;3126;52.738;8.316;2023-05-29T02:40:15;7.90;;;2.50;;
6185;SDS011;3126;52.738;8.316;2023-05-29T02:45:16;12.98;;;2.83;;
6185;SDS011;3126;52.738;8.316;2023-05-29T02:50:17;11.75;;;2.70;;
6185;SDS011;3126;52.738;8.316;2023-05-29T02:55:18;12.80;;;3.20;;
6185;SDS011;3126;52.738;8.316;2023-05-29T03:00:18;11.13;;;2.38;;
6185;SDS011;3126;52.738;8.316;2023-05-29T03:05:19;12.32;;;2.97;;
6185;SDS011;3126;52.738;8.316;2023-05-29T03:10:19;9.65;;;2.28;;
6185;SDS011;3126;52.738;8.316;2023-05-29T03:15:20;11.80;;;2.38;;
6185;SDS011;3126;52.738;8.316;2023-05-29T03:20:21;13.95;;;2.83;;
6185;SDS011;3126;52.738;8.316;2023-05-29T03:25:21;10.65;;;2.55;;
6185;SDS011;3126;52.738;8.316;2023-05-29T03:30:22;10.93;;;2.78;;
6185;SDS011;3126;52.738;8.316;2023-05-29T03:35:23;10.55;;;2.60;;
6185;SDS011;3126;52.738;8.316;2023-05-29T03:40:23;9.77;;;2.17;;
6185;SDS011;3126;52.738;8.316;2023-05-29T03:45:24;13.57;;;2.65;;
6185;SDS011;3126;52.738;8.316;2023-05-29T03:50:25;9.32;;;2.53;;
6185;SDS011;3126;52.738;8.316;2023-05-29T03:55:26;10.50;;;2.47;;
6185;SDS011;3126;52.738;8.316;2023-05-29T04:00:28;10.45;;;2.58;;
6185;SDS011;3126;52.738;8.316;2023-05-29T04:05:28;9.45;;;2.55;;
6185;SDS011;3126;52.738;8.316;2023-05-29T04:10:29;11.50;;;2.50;;
6185;SDS011;3126;52.738;8.316;2023-05-29T04:15:29;14.75;;;3.28;;
6185;SDS011;3126;52.738;8.316;2023-05-29T04:20:30;11.23;;;2.60;;
6185;SDS011;3126;52.738;8.316;2023-05-29T04:25:30;15.88;;;2.88;;
6185;SDS011;3126;52.738;8.316;2023-05-29T04:30:32;11.20;;;2.35;;
6185;SDS011;3126;52.738;8.316;2023-05-29T04:35:33;10.25;;;2.78;;
6185;SDS011;3126;52.738;8.316;2023-05-29T04:40:35;13.32;;;2.72;;
6185;SDS011;3126;52.738;8.316;2023-05-29T04:45:36;16.05;;;2.28;;
6185;SDS011;3126;52.738;8.316;2023-05-29T04:50:37;9.27;;;2.33;;
6185;SDS011;3126;52.738;8.316;2023-05-29T04:55:38;12.60;;;3.38;;
6185;SDS011;3126;52.738;8.316;2023-05-29T05:00:39;9.02;;;2.80;;
6185;SDS011;3126;52.738;8.316;2023-05-29T05:05:40;7.90;;;2.75;;
6185;SDS011;3126;52.738;8.316;2023-05-29T05:10:41;13.77;;;3.05;;
6185;SDS011;3126;52.738;8.316;2023-05-29T05:15:41;11.35;;;2.63;;
6185;SDS011;3126;52.738;8.316;2023-05-29T05:20:42;16.05;;;3.13;;
6185;SDS011;3126;52.738;8.316;2023-05-29T05:25:43;15.50;;;3.03;;
6185;SDS011;3126;52.738;8.316;2023-05-29T05:30:44;12.48;;;2.42;;
6185;SDS011;3126;52.738;8.316;2023-05-29T05:35:45;17.33;;;3.15;;
6185;SDS011;3126;52.738;8.316;2023-05-29T05:40:46;16.30;;;4.10;;
6185;SDS011;3126;52.738;8.316;2023-05-29T05:45:47;11.27;;;2.90;;
6185;SDS011;3126;52.738;8.316;2023-05-29T05:50:47;7.88;;;2.38;;
6185;SDS011;3126;52.738;8.316;2023-05-29T05:55:48;12.93;;;3.33;;
6185;SDS011;3126;52.738;8.316;2023-05-29T06:00:49;11.30;;;2.90;;
6185;SDS011;3126;52.738;8.316;2023-05-29T06:05:52;13.30;;;3.17;;
6185;SDS011;3126;52.738;8.316;2023-05-29T06:10:54;12.90;;;3.05;;
6185;SDS011;3126;52.738;8.316;2023-05-29T06:15:55;13.35;;;2.63;;
6185;SDS011;3126;52.738;8.316;2023-05-29T06:20:56;10.27;;;2.40;;
6185;SDS011;3126;52.738;8.316;2023-05-29T06:25:56;13.95;;;3.45;;
6185;SDS011;3126;52.738;8.316;2023-05-29T06:30:57;9.48;;;2.47;;
6185;SDS011;3126;52.738;8.316;2023-05-29T06:35:58;11.20;;;2.80;;
6185;SDS011;3126;52.738;8.316;2023-05-29T06:40:58;9.43;;;2.70;;
6185;SDS011;3126;52.738;8.316;2023-05-29T06:45:59;10.70;;;2.45;;
6185;SDS011;3126;52.738;8.316;2023-05-29T06:51:00;11.63;;;2.63;;
6185;SDS011;3126;52.738;8.316;2023-05-29T06:56:08;12.80;;;2.75;;
6185;SDS011;3126;52.738;8.316;2023-05-29T07:01:09;9.93;;;2.92;;
6185;SDS011;3126;52.738;8.316;2023-05-29T07:06:10;12.63;;;3.17;;
6185;SDS011;3126;52.738;8.316;2023-05-29T07:11:11;10.95;;;3.10;;
6185;SDS011;3126;52.738;8.316;2023-05-29T07:16:12;13.32;;;2.80;;
6185;SDS011;3126;52.738;8.316;2023-05-29T07:21:12;10.95;;;2.70;;
6185;SDS011;3126;52.738;8.316;2023-05-29T07:26:13;12.35;;;3.08;;
6185;SDS011;3126;52.738;8.316;2023-05-29T07:31:14;9.60;;;3.00;;
6185;SDS011;3126;52.738;8.316;2023-05-29T07:36:15;9.27;;;2.88;;
6185;SDS011;3126;52.738;8.316;2023-05-29T07:41:17;10.77;;;3.00;;
6185;SDS011;3126;52.738;8.316;2023-05-29T07:46:18;10.63;;;3.08;;
6185;SDS011;3126;52.738;8.316;2023-05-29T07:51:19;13.20;;;3.33;;
6185;SDS011;3126;52.738;8.316;2023-05-29T07:56:20;11.57;;;3.00;;
6185;SDS011;3126;52.738;8.316;2023-05-29T08:01:21;9.98;;;2.70;;
6185;SDS011;3126;52.738;8.316;2023-05-29T08:06:21;11.38;;;2.75;;
6185;SDS011;3126;52.738;8.316;2023-05-29T08:11:22;7.80;;;2.35;;
6185;SDS011;3126;52.738;8.316;2023-05-29T08:16:22;8.20;;;2.70;;
6185;SDS011;3126;52.738;8.316;2023-05-29T08:21:23;10.02;;;3.03;;
6185;SDS011;3126;52.738;8.316;2023-05-29T08:26:26;7.85;;;2.50;;
6185;SDS011;3126;52.738;8.316;2023-05-29T08:31:26;11.23;;;3.10;;
6185;SDS011;3126;52.738;8.316;2023-05-29T08:36:27;8.23;;;2.72;;
6185;SDS011;3126;52.738;8.316;2023-05-29T08:47:02;9.98;;;3.05;;
6185;SDS011;3126;52.738;8.316;2023-05-29T08:52:09;6.30;;;2.47;;
6185;SDS011;3126;52.738;8.316;2023-05-29T08:57:15;8.35;;;2.63;;
6185;SDS011;3126;52.738;8.316;2023-05-29T09:02:16;7.93;;;3.17;;
6185;SDS011;3126;52.738;8.316;2023-05-29T09:07:16;10.95;;;3.13;;
6185;SDS011;3126;52.738;8.316;2023-05-29T09:12:18;9.48;;;3.25;;
6185;SDS011;3126;52.738;8.316;2023-05-29T09:17:19;11.10;;;3.13;;
6185;SDS011;3126;52.738;8.316;2023-05-29T09:22:19;8.93;;;3.33;;
6185;SDS011;3126;52.738;8.316;2023-05-29T09:27:20;10.32;;;3.05;;
6185;SDS011;3126;52.738;8.316;2023-05-29T09:32:22;10.77;;;3.40;;
6185;SDS011;3126;52.738;8.316;2023-05-29T09:37:22;7.70;;;2.67;;
6185;SDS011;3126;52.738;8.316;2023-05-29T09:42:23;8.07;;;2.92;;
6185;SDS011;3126;52.738;8.316;2023-05-29T09:47:24;12.48;;;3.58;;
6185;SDS011;3126;52.738;8.316;2023-05-29T09:52:26;8.52;;;2.72;;
6185;SDS011;3126;52.738;8.316;2023-05-29T09:57:30;7.25;;;3.25;;
6185;SDS011;3126;52.738;8.316;2023-05-29T10:02:31;9.77;;;3.40;;
6185;SDS011;3126;52.738;8.316;2023-05-29T10:07:31;12.00;;;3.50;;
6185;SDS011;3126;52.738;8.316;2023-05-29T10:12:36;8.30;;;2.75;;
6185;SDS011;3126;52.738;8.316;2023-05-29T10:17:49;7.85;;;3.25;;
6185;SDS011;3126;52.738;8.316;2023-05-29T10:22:52;9.90;;;2.88;;
6185;SDS011;3126;52.738;8.316;2023-05-29T10:27:56;7.45;;;3.08;;
6185;SDS011;3126;52.738;8.316;2023-05-29T10:38:35;9.90;;;3.33;;
6185;SDS011;3126;52.738;8.316;2023-05-29T10:43:36;6.18;;;2.60;;
6185;SDS011;3126;52.738;8.316;2023-05-29T10:48:38;10.77;;;2.92;;
6185;SDS011;3126;52.738;8.316;2023-05-29T10:53:40;9.52;;;3.33;;
6185;SDS011;3126;52.738;8.316;2023-05-29T10:58:41;9.45;;;3.53;;
6185;SDS011;3126;52.738;8.316;2023-05-29T11:03:42;9.95;;;2.83;;
6185;SDS011;3126;52.738;8.316;2023-05-29T11:08:46;9.50;;;3.20;;
6185;SDS011;3126;52.738;8.316;2023-05-29T11:13:52;7.93;;;2.50;;
6185;SDS011;3126;52.738;8.316;2023-05-29T11:23:57;9.90;;;3.20;;
6185;SDS011;3126;52.738;8.316;2023-05-29T11:29:04;12.05;;;3.53;;
6185;SDS011;3126;52.738;8.316;2023-05-29T11:34:08;11.85;;;3.10;;
6185;SDS011;3126;52.738;8.316;2023-05-29T11:39:12;7.85;;;2.80;;
6185;SDS011;3126;52.738;8.316;2023-05-29T11:44:13;9.20;;;3.17;;
6185;SDS011;3126;52.738;8.316;2023-05-29T11:49:26;9.40;;;2.95;;
6185;SDS011;3126;52.738;8.316;2023-05-29T11:54:28;6.90;;;2.90;;
6185;SDS011;3126;52.738;8.316;2023-05-29T11:59:29;14.05;;;3.47;;
6185;SDS011;3126;52.738;8.316;2023-05-29T12:04:30;11.35;;;3.15;;
6185;SDS011;3126;52.738;8.316;2023-05-29T12:09:30;9.20;;;2.78;;
6185;SDS011;3126;52.738;8.316;2023-05-29T12:14:31;8.95;;;2.78;;
6185;SDS011;3126;52.738;8.316;2023-05-29T12:19:33;8.32;;;3.05;;
6185;SDS011;3126;52.738;8.316;2023-05-29T12:24:34;9.70;;;3.33;;
6185;SDS011;3126;52.738;8.316;2023-05-29T12:29:35;9.70;;;2.90;;
6185;SDS011;3126;52.738;8.316;2023-05-29T12:34:36;10.50;;;2.72;;
6185;SDS011;3126;52.738;8.316;2023-05-29T12:39:36;11.10;;;3.08;;
6185;SDS011;3126;52.738;8.316;2023-05-29T12:44:37;11.57;;;3.17;;
6185;SDS011;3126;52.738;8.316;2023-05-29T12:49:38;7.18;;;2.80;;
6185;SDS011;3126;52.738;8.316;2023-05-29T12:54:38;10.43;;;3.47;;
6185;SDS011;3126;52.738;8.316;2023-05-29T12:59:39;6.82;;;2.78;;
6185;SDS011;3126;52.738;8.316;2023-05-29T13:04:40;11.07;;;3.30;;
6185;SDS011;3126;52.738;8.316;2023-05-29T13:09:41;7.95;;;2.60;;
6185;SDS011;3126;52.738;8.316;2023-05-29T13:14:41;6.50;;;3.05;;
6185;SDS011;3126;52.738;8.316;2023-05-29T13:19:42;5.95;;;2.53;;
6185;SDS011;3126;52.738;8.316;2023-05-29T13:24:42;9.02;;;2.88;;
6185;SDS011;3126;52.738;8.316;2023-05-29T13:29:43;7.20;;;2.70;;
6185;SDS011;3126;52.738;8.316;2023-05-29T13:34:43;10.23;;;2.70;;
6185;SDS011;3126;52.738;8.316;2023-05-29T13:39:44;9.85;;;3.20;;
6185;SDS011;3126;52.738;8.316;2023-05-29T13:44:45;5.53;;;2.83;;
6185;SDS011;3126;52.738;8.316;2023-05-29T13:49:46;5.90;;;2.67;;
6185;SDS011;3126;52.738;8.316;2023-05-29T13:54:46;9.50;;;2.40;;
6185;SDS011;3126;52.738;8.316;2023-05-29T13:59:47;7.10;;;2.45;;
6185;SDS011;3126;52.738;8.316;2023-05-29T14:04:47;9.52;;;2.53;;
6185;SDS011;3126;52.738;8.316;2023-05-29T14:09:48;9.60;;;2.75;;
6185;SDS011;3126;52.738;8.316;2023-05-29T14:14:49;8.50;;;2.42;;
6185;SDS011;3126;52.738;8.316;2023-05-29T14:19:50;7.75;;;2.70;;
6185;SDS011;3126;52.738;8.316;2023-05-29T14:24:50;7.45;;;2.42;;
6185;SDS011;3126;52.738;8.316;2023-05-29T14:29:51;3.83;;;2.15;;
6185;SDS011;3126;52.738;8.316;2023-05-29T14:34:51;6.93;;;2.38;;
6185;SDS011;3126;52.738;8.316;2023-05-29T14:39:52;5.55;;;2.45;;
6185;SDS011;3126;52.738;8.316;2023-05-29T14:44:53;6.28;;;2.47;;
6185;SDS011;3126;52.738;8.316;2023-05-29T14:49:53;4.57;;;2.83;;
6185;SDS011;3126;52.738;8.316;2023-05-29T14:54:54;4.72;;;2.40;;
6185;SDS011;3126;52.738;8.316;2023-05-29T14:59:54;7.38;;;1.83;;
6185;SDS011;3126;52.738;8.316;2023-05-29T15:04:55;3.92;;;2.03;;
6185;SDS011;3126;52.738;8.316;2023-05-29T15:09:56;7.80;;;2.15;;
6185;SDS011;3126;52.738;8.316;2023-05-29T15:14:56;9.52;;;2.00;;
6185;SDS011;3126;52.738;8.316;2023-05-29T15:19:57;5.82;;;2.03;;
6185;SDS011;3126;52.738;8.316;2023-05-29T15:24:57;3.97;;;1.65;;
6185;SDS011;3126;52.738;8.316;2023-05-29T15:35:18;7.43;;;2.22;;
6185;SDS011;3126;52.738;8.316;2023-05-29T15:40:19;4.88;;;1.73;;
6185;SDS011;3126;52.738;8.316;2023-05-29T15:45:20;6.57;;;1.55;;
6185;SDS011;3126;52.738;8.316;2023-05-29T15:50:20;4.03;;;1.73;;
6185;SDS011;3126;52.738;8.316;2023-05-29T15:55:21;9.90;;;2.13;;
6185;SDS011;3126;52.738;8.316;2023-05-29T16:00:22;6.03;;;1.30;;
6185;SDS011;3126;52.738;8.316;2023-05-29T16:05:23;5.80;;;1.33;;
6185;SDS011;3126;52.738;8.316;2023-05-29T16:10:24;9.45;;;2.42;;
6185;SDS011;3126;52.738;8.316;2023-05-29T16:15:25;4.55;;;1.55;;
6185;SDS011;3126;52.738;8.316;2023-05-29T16:20:25;5.68;;;1.65;;
6185;SDS011;3126;52.738;8.316;2023-05-29T16:25:26;6.28;;;2.28;;
6185;SDS011;3126;52.738;8.316;2023-05-29T16:30:27;9.30;;;2.13;;
6185;SDS011;3126;52.738;8.316;2023-05-29T16:35:27;7.95;;;2.50;;
6185;SDS011;3126;52.738;8.316;2023-05-29T16:40:28;7.10;;;1.50;;
6185;SDS011;3126;52.738;8.316;2023-05-29T16:45:28;7.90;;;2.42;;
6185;SDS011;3126;52.738;8.316;2023-05-29T16:50:29;7.50;;;1.70;;
6185;SDS011;3126;52.738;8.316;2023-05-29T16:55:29;6.70;;;1.73;;
6185;SDS011;3126;52.738;8.316;2023-05-29T17:00:30;4.00;;;1.65;;
6185;SDS011;3126;52.738;8.316;2023-05-29T17:05:31;3.58;;;1.83;;
6185;SDS011;3126;52.738;8.316;2023-05-29T17:10:32;4.15;;;1.63;;
6185;SDS011;3126;52.738;8.316;2023-05-29T17:15:36;7.30;;;1.90;;
6185;SDS011;3126;52.738;8.316;2023-05-29T17:20:36;5.18;;;2.13;;
6185;SDS011;3126;52.738;8.316;2023-05-29T17:25:37;6.28;;;1.90;;
6185;SDS011;3126;52.738;8.316;2023-05-29T17:30:37;5.72;;;1.73;;
6185;SDS011;3126;52.738;8.316;2023-05-29T17:35:38;6.53;;;1.83;;
6185;SDS011;3126;52.738;8.316;2023-05-29T17:40:39;4.65;;;2.03;;
6185;SDS011;3126;52.738;8.316;2023-05-29T17:45:39;3.05;;;1.10;;
6185;SDS011;3126;52.738;8.316;2023-05-29T17:50:40;3.80;;;1.33;;
6185;SDS011;3126;52.738;8.316;2023-05-29T17:55:40;5.78;;;1.83;;
6185;SDS011;3126;52.738;8.316;2023-05-29T18:00:41;6.18;;;1.63;;
6185;SDS011;3126;52.738;8.316;2023-05-29T18:05:42;3.60;;;1.40;;
6185;SDS011;3126;52.738;8.316;2023-05-29T18:10:43;6.95;;;1.80;;
6185;SDS011;3126;52.738;8.316;2023-05-29T18:15:44;8.80;;;1.80;;
6185;SDS011;3126;52.738;8.316;2023-05-29T18:20:45;8.15;;;2.03;;
6185;SDS011;3126;52.738;8.316;2023-05-29T18:25:45;5.88;;;2.25;;
6185;SDS011;3126;52.738;8.316;2023-05-29T18:30:46;10.05;;;2.50;;
6185;SDS011;3126;52.738;8.316;2023-05-29T18:35:47;9.35;;;1.77;;
6185;SDS011;3126;52.738;8.316;2023-05-29T18:40:47;9.70;;;2.05;;
6185;SDS011;3126;52.738;8.316;2023-05-29T18:45:48;7.40;;;1.80;;
6185;SDS011;3126;52.738;8.316;2023-05-29T18:50:49;7.32;;;1.60;;
6185;SDS011;3126;52.738;8.316;2023-05-29T18:55:50;5.10;;;2.17;;
6185;SDS011;3126;52.738;8.316;2023-05-29T19:00:51;6.00;;;1.60;;
6185;SDS011;3126;52.738;8.316;2023-05-29T19:05:52;3.95;;;1.67;;
6185;SDS011;3126;52.738;8.316;2023-05-29T19:10:53;5.55;;;1.80;;
6185;SDS011;3126;52.738;8.316;2023-05-29T19:15:53;7.22;;;1.65;;
6185;SDS011;3126;52.738;8.316;2023-05-29T19:20:54;13.30;;;2.60;;
6185;SDS011;3126;52.738;8.316;2023-05-29T19:25:55;9.70;;;2.88;;
6185;SDS011;3126;52.738;8.316;2023-05-29T19:30:56;8.07;;;1.80;;
6185;SDS011;3126;52.738;8.316;2023-05-29T19:35:56;9.32;;;1.90;;
6185;SDS011;3126;52.738;8.316;2023-05-29T19:40:57;5.18;;;1.75;;
6185;SDS011;3126;52.738;8.316;2023-05-29T19:45:57;6.80;;;2.55;;
6185;SDS011;3126;52.738;8.316;2023-05-29T19:50:58;5.97;;;2.10;;
6185;SDS011;3126;52.738;8.316;2023-05-29T19:55:58;10.90;;;1.85;;
6185;SDS011;3126;52.738;8.316;2023-05-29T20:00:59;8.88;;;2.72;;
6185;SDS011;3126;52.738;8.316;2023-05-29T20:06:00;11.68;;;2.80;;
6185;SDS011;3126;52.738;8.316;2023-05-29T20:11:02;9.23;;;2.28;;
6185;SDS011;3126;52.738;8.316;2023-05-29T20:16:02;12.60;;;3.05;;
6185;SDS011;3126;52.738;8.316;2023-05-29T20:21:03;10.65;;;2.60;;
6185;SDS011;3126;52.738;8.316;2023-05-29T20:26:04;9.48;;;2.80;;
6185;SDS011;3126;52.738;8.316;2023-05-29T20:31:04;9.00;;;3.15;;
6185;SDS011;3126;52.738;8.316;2023-05-29T20:36:05;10.35;;;2.67;;
6185;SDS011;3126;52.738;8.316;2023-05-29T20:41:07;14.13;;;2.95;;
6185;SDS011;3126;52.738;8.316;2023-05-29T20:46:08;7.18;;;2.40;;
6185;SDS011;3126;52.738;8.316;2023-05-29T20:51:09;16.05;;;2.70;;
6185;SDS011;3126;52.738;8.316;2023-05-29T20:56:10;9.68;;;2.45;;
6185;SDS011;3126;52.738;8.316;2023-05-29T21:01:11;15.65;;;3.42;;
6185;SDS011;3126;52.738;8.316;2023-05-29T21:06:11;10.48;;;2.75;;
6185;SDS011;3126;52.738;8.316;2023-05-29T21:11:12;13.02;;;3.05;;
6185;SDS011;3126;52.738;8.316;2023-05-29T21:16:13;12.88;;;2.85;;
6185;SDS011;3126;52.738;8.316;2023-05-29T21:21:13;9.73;;;2.85;;
6185;SDS011;3126;52.738;8.316;2023-05-29T21:26:14;12.90;;;2.03;;
6185;SDS011;3126;52.738;8.316;2023-05-29T21:31:15;8.90;;;2.92;;
6185;SDS011;3126;52.738;8.316;2023-05-29T21:36:16;11.40;;;2.65;;
6185;SDS011;3126;52.738;8.316;2023-05-29T21:41:16;9.23;;;2.45;;
6185;SDS011;3126;52.738;8.316;2023-05-29T21:46:17;12.82;;;3.38;;
6185;SDS011;3126;52.738;8.316;2023-05-29T21:51:18;8.07;;;3.05;;
6185;SDS011;3126;52.738;8.316;2023-05-29T21:56:18;13.65;;;3.60;;
6185;SDS011;3126;52.738;8.316;2023-05-29T22:01:19;11.15;;;3.08;;
6185;SDS011;3126;52.738;8.316;2023-05-29T22:06:20;8.68;;;2.85;;
6185;SDS011;3126;52.738;8.316;2023-05-29T22:11:21;7.82;;;2.85;;
6185;SDS011;3126;52.738;8.316;2023-05-29T22:16:22;9.95;;;3.05;;
6185;SDS011;3126;52.738;8.316;2023-05-29T22:21:22;10.77;;;2.65;;
6185;SDS011;3126;52.738;8.316;2023-05-29T22:26:24;17.40;;;3.90;;
6185;SDS011;3126;52.738;8.316;2023-05-29T22:31:25;11.98;;;2.97;;
6185;SDS011;3126;52.738;8.316;2023-05-29T22:36:26;8.70;;;2.78;;
6185;SDS011;3126;52.738;8.316;2023-05-29T22:41:27;8.05;;;3.47;;
6185;SDS011;3126;52.738;8.316;2023-05-29T22:46:28;15.57;;;2.90;;
6185;SDS011;3126;52.738;8.316;2023-05-29T22:51:28;13.00;;;3.35;;
6185;SDS011;3126;52.738;8.316;2023-05-29T22:56:33;12.77;;;3.03;;
6185;SDS011;3126;52.738;8.316;2023-05-29T23:01:33;11.73;;;3.83;;
6185;SDS011;3126;52.738;8.316;2023-05-29T23:06:34;11.50;;;3.47;;
6185;SDS011;3126;52.738;8.316;2023-05-29T23:11:34;13.75;;;3.20;;
6185;SDS011;3126;52.738;8.316;2023-05-29T23:16:35;14.95;;;3.67;;
6185;SDS011;3126;52.738;8.316;2023-05-29T23:21:36;8.07;;;3.22;;
6185;SDS011;3126;52.738;8.316;2023-05-29T23:26:37;13.57;;;3.53;;
6185;SDS011;3126;52.738;8.316;2023-05-29T23:31:37;13.27;;;3.58;;
6185;SDS011;3126;52.738;8.316;2023-05-29T23:36:38;13.55;;;3.00;;
6185;SDS011;3126;52.738;8.316;2023-05-29T23:41:40;8.80;;;3.38;;
6185;SDS011;3126;52.738;8.316;2023-05-29T23:46:41;14.85;;;3.78;;
6185;SDS011;3126;52.738;8.316;2023-05-29T23:51:41;16.27;;;4.15;;
6185;SDS011;3126;52.738;8.316;2023-05-29T23:56:42;10.68;;;3.22;;
